LFBU/ANG METAR and TAF weather

Enter ICAO airport designator
Station Type Date Time Source
LFBU METAR 2020/07/03 14:30 UTC NOAA

LFBU 031430Z AUTO 29008KT 250V330 CAVOK 22/08 Q1023 NOSIG


Station Type Date Time Source
LFBU Decoded METAR 2020/07/03 14:30 UTC NOAA

Station name not available
Jul 03, 2020 - 10:30 AM EDT / 2020.07.03 1430 UTC
Wind: from the WNW (290 degrees) at 9 MPH (8 KT) (direction variable):0
Visibility: greater than 7 mile(s):0
Temperature: 71 F (22 C)
Dew Point: 46 F (8 C)
Relative Humidity: 40%
Pressure (altimeter): 30.21 in. Hg (1023 hPa)
ob: LFBU 031430Z AUTO 29008KT 250V330 CAVOK 22/08 Q1023 NOSIG
cycle: 14

Station Type Date Time Source
LFBU TAF 2020/07/03 12:00 UTC NOAA

TAF LFBU 031100Z 0312/0412 31010KT 9999 BKN045
BECMG 0312/0315 CAVOK
BECMG 0322/0324 VRB02KT PROB40
TEMPO 0400/0406 0800 BCFG

Example: see airport list